createdAt,value
2023-03-22T00:01:13.820Z,23.80
2023-03-22T00:03:58.474Z,14.20
2023-03-22T00:16:51.921Z,15.70
2023-03-22T00:19:24.279Z,15.30
2023-03-22T00:24:42.708Z,16.70
2023-03-22T00:27:26.476Z,14.60
2023-03-22T00:29:56.506Z,16.50
2023-03-22T07:44:11.162Z,19.00
2023-03-22T08:10:33.293Z,18.00
2023-03-22T08:13:32.399Z,18.00
2023-03-22T08:16:28.240Z,19.20
2023-03-22T08:19:08.294Z,19.30
2023-03-22T08:21:46.463Z,22.00
2023-03-22T08:24:39.358Z,20.10
2023-03-22T08:27:28.389Z,20.30
2023-03-22T08:30:09.641Z,19.40
2023-03-22T08:32:41.654Z,18.40
2023-03-22T08:35:21.729Z,18.00
2023-03-22T08:38:27.711Z,16.80
2023-03-22T08:41:01.440Z,17.60
2023-03-22T08:43:33.088Z,17.00
2023-03-22T08:46:06.038Z,16.20
2023-03-22T08:48:38.174Z,14.80
2023-03-22T08:51:23.850Z,15.50
2023-03-22T08:54:19.467Z,15.10
2023-03-22T08:56:55.078Z,16.50
2023-03-22T08:59:54.625Z,15.90
2023-03-22T09:02:29.094Z,15.40
2023-03-22T09:05:01.618Z,16.90
2023-03-22T09:07:36.600Z,14.30
2023-03-22T09:10:17.725Z,14.50
2023-03-22T09:12:57.037Z,15.60
2023-03-22T09:15:35.402Z,16.50
2023-03-22T09:18:28.210Z,14.60
2023-03-22T09:21:05.042Z,13.70
2023-03-22T09:23:51.600Z,14.90
2023-03-22T09:26:26.029Z,15.90
2023-03-22T09:29:16.504Z,14.80
2023-03-22T09:31:50.690Z,14.70
2023-03-22T09:34:51.169Z,16.30
2023-03-22T09:37:26.243Z,15.10
2023-03-22T09:40:00.136Z,16.70
